createdAt,value
2019-06-27T00:05:09.231Z,22.90
2019-06-27T00:15:12.216Z,22.80
2019-06-27T00:25:14.228Z,22.60
2019-06-27T00:35:16.243Z,22.40
2019-06-27T00:45:18.289Z,22.10
2019-06-27T00:55:20.290Z,22.00
2019-06-27T01:05:22.268Z,21.80
2019-06-27T01:15:24.225Z,21.40
2019-06-27T01:25:26.300Z,21.20
2019-06-27T01:35:28.463Z,21.20
2019-06-27T01:45:30.437Z,21.10
2019-06-27T01:55:32.725Z,20.90
2019-06-27T02:05:34.865Z,20.90
2019-06-27T02:15:36.870Z,20.80
2019-06-27T02:25:38.960Z,20.60
2019-06-27T02:35:40.987Z,20.50
2019-06-27T02:45:42.955Z,20.50
2019-06-27T02:55:44.948Z,20.30
2019-06-27T03:05:46.949Z,20.10
2019-06-27T03:15:48.931Z,19.90
2019-06-27T03:25:51.064Z,19.80
2019-06-27T03:35:53.026Z,19.80
2019-06-27T03:45:54.928Z,19.80
2019-06-27T03:55:57.124Z,19.80
2019-06-27T04:05:59.357Z,19.80
2019-06-27T04:16:01.390Z,20.00
2019-06-27T04:26:03.398Z,19.90
2019-06-27T04:36:05.404Z,19.70
2019-06-27T04:46:07.341Z,19.60
2019-06-27T04:56:09.344Z,19.60
2019-06-27T05:06:11.695Z,19.60
2019-06-27T05:16:13.654Z,19.60
2019-06-27T05:26:15.666Z,19.60
2019-06-27T05:36:17.783Z,19.70
2019-06-27T05:46:19.716Z,19.70
2019-06-27T05:56:21.817Z,19.70
2019-06-27T06:06:23.747Z,19.80
2019-06-27T06:16:25.825Z,19.80
2019-06-27T06:26:27.779Z,19.90
2019-06-27T06:36:29.737Z,20.00
2019-06-27T06:46:31.691Z,20.30
2019-06-27T06:56:33.735Z,20.30
2019-06-27T07:06:35.683Z,20.20
2019-06-27T07:16:37.645Z,20.30
2019-06-27T07:26:39.588Z,20.40
2019-06-27T07:36:41.583Z,20.40
2019-06-27T07:46:43.624Z,20.50
2019-06-27T07:56:46.489Z,20.70
2019-06-27T08:06:48.681Z,20.90
2019-06-27T08:16:50.680Z,21.10
2019-06-27T08:26:52.657Z,21.10
2019-06-27T08:36:54.563Z,21.30
2019-06-27T08:46:56.555Z,21.40
2019-06-27T08:56:58.661Z,21.50
2019-06-27T09:07:00.653Z,21.60
2019-06-27T09:17:02.596Z,21.70
2019-06-27T09:27:04.548Z,21.80
2019-06-27T09:37:06.601Z,21.90
2019-06-27T09:47:08.535Z,22.10
2019-06-27T09:57:10.548Z,22.40
2019-06-27T10:07:12.481Z,22.60
2019-06-27T10:17:14.472Z,22.80
2019-06-27T10:27:16.475Z,23.00
2019-06-27T10:37:18.435Z,23.20
2019-06-27T10:47:20.473Z,23.40
2019-06-27T10:57:22.487Z,23.60
2019-06-27T11:07:24.569Z,23.90
2019-06-27T11:17:26.543Z,24.30
2019-06-27T11:27:28.501Z,24.60
2019-06-27T11:37:30.564Z,25.00
2019-06-27T11:47:34.562Z,25.30
2019-06-27T11:57:36.352Z,26.10
2019-06-27T12:07:38.416Z,29.40
2019-06-27T12:17:40.383Z,30.70
2019-06-27T12:27:42.471Z,31.00
2019-06-27T12:37:44.414Z,30.90
2019-06-27T12:47:46.499Z,30.50
2019-06-27T12:57:48.455Z,30.80
2019-06-27T13:07:50.416Z,31.60
2019-06-27T13:17:52.435Z,34.00
2019-06-27T13:27:54.458Z,33.50
2019-06-27T13:37:56.504Z,34.00
2019-06-27T13:47:58.465Z,31.20
2019-06-27T13:58:00.500Z,29.70
2019-06-27T14:08:02.586Z,30.80
2019-06-27T14:18:04.643Z,32.00
2019-06-27T14:28:06.594Z,30.20
2019-06-27T14:38:08.619Z,29.50
2019-06-27T14:48:10.580Z,31.20
2019-06-27T14:58:12.737Z,29.50
2019-06-27T15:08:14.721Z,29.30
2019-06-27T15:18:16.923Z,31.60
2019-06-27T15:28:18.916Z,29.10
2019-06-27T15:38:20.899Z,28.10
2019-06-27T15:48:22.940Z,27.70
2019-06-27T15:58:24.968Z,27.70
2019-06-27T16:08:27.043Z,27.60
2019-06-27T16:18:28.966Z,27.50
2019-06-27T16:28:30.999Z,27.50
2019-06-27T16:38:33.031Z,27.70
2019-06-27T16:48:34.986Z,28.00
2019-06-27T16:58:37.011Z,37.60
2019-06-27T17:08:39.128Z,42.40
2019-06-27T17:18:41.258Z,37.50
2019-06-27T17:28:43.199Z,32.30
2019-06-27T17:38:45.364Z,29.80
2019-06-27T17:48:47.449Z,28.50
2019-06-27T17:58:49.723Z,27.80
2019-06-27T18:08:51.715Z,27.40
2019-06-27T18:18:53.727Z,27.00
2019-06-27T18:28:55.703Z,26.70
2019-06-27T18:38:57.645Z,26.40
2019-06-27T18:48:59.596Z,26.10
2019-06-27T18:59:01.715Z,25.90
2019-06-27T19:09:04.893Z,25.70
2019-06-27T19:19:06.819Z,25.40
2019-06-27T19:29:08.763Z,25.10
2019-06-27T19:39:10.807Z,24.80
2019-06-27T19:49:12.772Z,24.60
2019-06-27T19:59:14.864Z,24.40
2019-06-27T20:09:16.779Z,24.10
2019-06-27T20:19:18.844Z,23.90
2019-06-27T20:29:20.847Z,23.60
2019-06-27T20:39:22.852Z,23.50
2019-06-27T20:49:24.772Z,23.30
2019-06-27T20:59:26.747Z,23.10
2019-06-27T21:09:28.754Z,22.90
2019-06-27T21:19:30.672Z,22.70
2019-06-27T21:29:32.642Z,22.50
2019-06-27T21:39:34.582Z,22.40
2019-06-27T21:49:36.635Z,22.20
2019-06-27T21:59:38.724Z,22.10
2019-06-27T22:09:40.780Z,22.00
2019-06-27T22:19:42.823Z,21.90
2019-06-27T22:29:44.873Z,21.70
2019-06-27T22:39:46.888Z,21.60
2019-06-27T22:49:49.132Z,21.40
2019-06-27T22:59:51.167Z,21.30
2019-06-27T23:09:57.257Z,21.20
2019-06-27T23:19:57.043Z,21.00
2019-06-27T23:29:59.058Z,21.00
2019-06-27T23:40:13.388Z,20.70
2019-06-27T23:50:05.228Z,20.50
